地図

経路データ

SID SEASON NUMBER BASIN SUBBASIN NAME ISO_TIME NATURE LAT LON WMO_WIND WMO_PRES WMO_AGENCY TRACK_TYPE DIST2LAND LANDFALL IFLAG USA_AGENCY USA_ATCF_ID USA_LAT USA_LON USA_RECORD USA_STATUS USA_WIND USA_PRES USA_SSHS USA_R34_NE USA_R34_SE USA_R34_SW USA_R34_NW USA_R50_NE USA_R50_SE USA_R50_SW USA_R50_NW USA_R64_NE USA_R64_SE USA_R64_SW USA_R64_NW USA_POCI USA_ROCI USA_RMW USA_EYE TOKYO_LAT TOKYO_LON TOKYO_GRADE TOKYO_WIND TOKYO_PRES TOKYO_R50_DIR TOKYO_R50_LONG TOKYO_R50_SHORT TOKYO_R30_DIR TOKYO_R30_LONG TOKYO_R30_SHORT TOKYO_LAND CMA_LAT CMA_LON CMA_CAT CMA_WIND CMA_PRES HKO_LAT HKO_LON HKO_CAT HKO_WIND HKO_PRES NEWDELHI_LAT NEWDELHI_LON NEWDELHI_GRADE NEWDELHI_WIND NEWDELHI_PRES NEWDELHI_CI NEWDELHI_DP NEWDELHI_POCI REUNION_LAT REUNION_LON REUNION_TYPE REUNION_WIND REUNION_PRES REUNION_TNUM REUNION_CI REUNION_RMW REUNION_R34_NE REUNION_R34_SE REUNION_R34_SW REUNION_R34_NW REUNION_R50_NE REUNION_R50_SE REUNION_R50_SW REUNION_R50_NW REUNION_R64_NE REUNION_R64_SE REUNION_R64_SW REUNION_R64_NW BOM_LAT BOM_LON BOM_TYPE BOM_WIND BOM_PRES BOM_TNUM BOM_CI BOM_RMW BOM_R34_NE BOM_R34_SE BOM_R34_SW BOM_R34_NW BOM_R50_NE BOM_R50_SE BOM_R50_SW BOM_R50_NW BOM_R64_NE BOM_R64_SE BOM_R64_SW BOM_R64_NW BOM_ROCI BOM_POCI BOM_EYE BOM_POS_METHOD BOM_PRES_METHOD NADI_LAT NADI_LON NADI_CAT NADI_WIND NADI_PRES WELLINGTON_LAT WELLINGTON_LON WELLINGTON_WIND WELLINGTON_PRES DS824_LAT DS824_LON DS824_STAGE DS824_WIND DS824_PRES TD9636_LAT TD9636_LON TD9636_STAGE TD9636_WIND TD9636_PRES TD9635_LAT TD9635_LON TD9635_WIND TD9635_PRES TD9635_ROCI NEUMANN_LAT NEUMANN_LON NEUMANN_CLASS NEUMANN_WIND NEUMANN_PRES MLC_LAT MLC_LON MLC_CLASS MLC_WIND MLC_PRES USA_GUST BOM_GUST BOM_GUST_PER REUNION_GUST REUNION_GUST_PER USA_SEAHGT USA_SEARAD_NE USA_SEARAD_SE USA_SEARAD_SW USA_SEARAD_NW STORM_SPEED STORM_DIR
1910273N24132 1910 46 WP MM NOT_NAMED 1910-09-29 16:00:00 NR 23.6000 132.000 main 836 823 __________O___ -1 23.6000 132.000 7 3 318
1910273N24132 1910 46 WP MM NOT_NAMED 1910-09-29 18:00:00 NR 23.6654 131.943 main 823 811 __________P___ -1 23.6654 131.943 7 3 317
1910273N24132 1910 46 WP MM NOT_NAMED 1910-09-29 21:00:00 NR 23.7702 131.828 main 811 797 __________P___ -1 23.7702 131.828 7 4 309
1910273N24132 1910 46 WP MM NOT_NAMED 1910-09-30 00:00:00 NR 23.8925 131.641 main 797 783 __________P___ -1 23.8925 131.641 7 5 301
1910273N24132 1910 46 WP MM NOT_NAMED 1910-09-30 03:00:00 NR 24.0423 131.336 main 783 772 __________P___ -1 24.0423 131.336 7 7 297
1910273N24132 1910 46 WP MM NOT_NAMED 1910-09-30 04:00:00 NR 24.1000 131.200 main 772 759 __________O___ -1 24.1000 131.200 7 9 294
1910273N24132 1910 46 WP MM NOT_NAMED 1910-09-30 06:00:00 NR 24.2276 130.873 main 759 737 __________P___ -1 24.2276 130.873 7 11 292
1910273N24132 1910 46 WP MM NOT_NAMED 1910-09-30 09:00:00 NR 24.4378 130.276 main 738 711 __________P___ -1 24.4378 130.276 7 12 290
1910273N24132 1910 46 WP MM NOT_NAMED 1910-09-30 12:00:00 NR 24.6503 129.603 main 711 695 __________P___ -1 24.6503 129.603 7 13 288
1910273N24132 1910 46 WP MM NOT_NAMED 1910-09-30 15:00:00 NR 24.8435 128.920 main 695 675 __________P___ -1 24.8435 128.920 7 13 287
1910273N24132 1910 46 WP MM NOT_NAMED 1910-09-30 16:00:00 NR 24.9000 128.700 main 675 634 __________O___ -1 24.9000 128.700 4 11 285
1910273N24132 1910 46 WP MM NOT_NAMED 1910-09-30 18:00:00 NR 24.9879 128.344 main 634 583 __________P___ -1 24.9879 128.344 4 10 284
1910273N24132 1910 46 WP MM NOT_NAMED 1910-09-30 21:00:00 NR 25.0952 127.830 main 583 533 __________P___ -1 25.0952 127.830 4 10 282
1910273N24132 1910 46 WP MM NOT_NAMED 1910-10-01 00:00:00 NR 25.1852 127.302 main 533 473 __________P___ -1 25.1852 127.302 4 10 280
1910273N24132 1910 46 WP MM NOT_NAMED 1910-10-01 03:00:00 NR 25.2705 126.716 main 473 453 __________P___ -1 25.2705 126.716 4 11 279
1910273N24132 1910 46 WP MM NOT_NAMED 1910-10-01 04:00:00 NR 25.3000 126.500 main 453 404 __________O___ -1 25.3000 126.500 4 13 281
1910273N24132 1910 46 WP MM NOT_NAMED 1910-10-01 06:00:00 NR 25.3909 126.006 main 404 326 __________P___ -1 25.3909 126.006 4 14 281
1910273N24132 1910 46 WP MM NOT_NAMED 1910-10-01 09:00:00 NR 25.5275 125.195 main 326 240 __________P___ -1 25.5275 125.195 4 15 279
1910273N24132 1910 46 WP MM NOT_NAMED 1910-10-01 12:00:00 NR 25.6388 124.338 main 240 169 __________P___ -1 25.6388 124.338 4 16 276
1910273N24132 1910 46 WP MM NOT_NAMED 1910-10-01 15:00:00 NR 25.6970 123.479 main 169 143 __________P___ -1 25.6970 123.479 4 15 273
1910273N24132 1910 46 WP MM NOT_NAMED 1910-10-01 16:00:00 NR 25.7000 123.200 main 143 105 __________O___ -1 25.7000 123.200 4 15 270
1910273N24132 1910 46 WP MM NOT_NAMED 1910-10-01 18:00:00 NR 25.6911 122.662 main 105 53 __________P___ -1 25.6911 122.662 4 14 266
1910273N24132 1910 46 WP MM NOT_NAMED 1910-10-01 21:00:00 NR 25.6222 121.873 main 53 33 __________P___ -1 25.6222 121.873 4 14 262
1910273N24132 1910 46 WP MM NOT_NAMED 1910-10-02 00:00:00 NR 25.4862 121.121 main 45 39 __________P___ -1 25.4862 121.121 4 14 255
1910273N24132 1910 46 WP MM NOT_NAMED 1910-10-02 03:00:00 NR 25.2828 120.420 main 69 54 __________P___ -1 25.2828 120.420 4 13 251
1910273N24132 1910 46 WP MM NOT_NAMED 1910-10-02 04:00:00 NR 25.2000 120.200 main 54 37 __________O___ -1 25.2000 120.200 4 13 244
1910273N24132 1910 46 WP MM NOT_NAMED 1910-10-02 06:00:00 NR 25.0059 119.798 main 39 34 __________P___ -1 25.0059 119.798 4 12 238
1910273N24132 1910 46 WP MM NOT_NAMED 1910-10-02 09:00:00 NR 24.6590 119.246 main 37 23 __________P___ -1 24.6590 119.246 4 12 233
1910273N24132 1910 46 WP MM NOT_NAMED 1910-10-02 12:00:00 NR 24.2814 118.721 main 24 24 __________P___ -1 24.2814 118.721 4 12 232
1910273N24132 1910 46 WP MM NOT_NAMED 1910-10-02 15:00:00 NR 23.9136 118.187 main 32 23 __________P___ -1 23.9136 118.187 4 12 234
1910273N24132 1910 46 WP MM NOT_NAMED 1910-10-02 16:00:00 NR 23.8000 118.000 main 23 10 __________O___ -1 23.8000 118.000 4 12 241
1910273N24132 1910 46 WP MM NOT_NAMED 1910-10-02 18:00:00 NR 23.6127 117.598 main 11 10 __________P___ -1 23.6127 117.598 4 13 245
1910273N24132 1910 46 WP MM NOT_NAMED 1910-10-02 21:00:00 NR 23.3572 116.970 main 10 0 __________P___ -1 23.3572 116.970 4 13 247
1910273N24132 1910 46 WP MM NOT_NAMED 1910-10-03 00:00:00 NR 23.1186 116.314 main 0 0 __________P___ -1 23.1186 116.314 4 13 249
1910273N24132 1910 46 WP MM NOT_NAMED 1910-10-03 03:00:00 NR 22.8814 115.632 main 0 0 __________P___ -1 22.8814 115.632 4 14 249
1910273N24132 1910 46 WP MM NOT_NAMED 1910-10-03 04:00:00 NR 22.8000 115.400 main 0 0 __________O___ -1 22.8000 115.400 4 14 249
1910273N24132 1910 46 WP MM NOT_NAMED 1910-10-03 06:00:00 NR 22.6226 114.916 main 0 0 __________P___ -1 22.6226 114.916 4 15 248
1910273N24132 1910 46 WP MM NOT_NAMED 1910-10-03 09:00:00 NR 22.3502 114.169 main 0 10 __________P___ -1 22.3502 114.169 4 15 248
1910273N24132 1910 46 WP MM NOT_NAMED 1910-10-03 12:00:00 NR 22.0726 113.428 main 10 0 __________P___ -1 22.0726 113.428 4 15 247
1910273N24132 1910 46 WP MM NOT_NAMED 1910-10-03 15:00:00 NR 21.7930 112.722 main 10 0 __________P___ -1 21.7930 112.722 4 14 247
1910273N24132 1910 46 WP MM NOT_NAMED 1910-10-03 16:00:00 NR 21.7000 112.500 main 11 10 __________O___ -1 21.7000 112.500 4 13 245
1910273N24132 1910 46 WP MM NOT_NAMED 1910-10-03 18:00:00 NR 21.5158 112.084 main 24 15 __________P___ -1 21.5158 112.084 4 12 244
1910273N24132 1910 46 WP MM NOT_NAMED 1910-10-03 21:00:00 NR 21.2403 111.502 main 30 22 __________P___ -1 21.2403 111.502 4 12 242
1910273N24132 1910 46 WP MM NOT_NAMED 1910-10-04 00:00:00 NR 20.9657 110.965 main 45 10 __________P___ -1 20.9657 110.965 4 11 241
1910273N24132 1910 46 WP MM NOT_NAMED 1910-10-04 03:00:00 NR 20.6914 110.462 main 10 0 __________P___ -1 20.6914 110.462 4 11 240
1910273N24132 1910 46 WP MM NOT_NAMED 1910-10-04 04:00:00 NR 20.6000 110.300 main 0 0 __________O___ -1 20.6000 110.300 4 11 238
1910273N24132 1910 46 WP MM NOT_NAMED 1910-10-04 06:00:00 NR 20.4083 109.975 main 0 0 __________P___ -1 20.4083 109.975 4 11 237
1910273N24132 1910 46 WP MM NOT_NAMED 1910-10-04 09:00:00 NR 20.1210 109.512 main 22 15 __________P___ -1 20.1210 109.512 4 10 236
1910273N24132 1910 46 WP MM NOT_NAMED 1910-10-04 12:00:00 NR 19.8423 109.071 main 15 22 __________P___ -1 19.8423 109.071 4 10 237
1910273N24132 1910 46 WP MM NOT_NAMED 1910-10-04 15:00:00 NR 19.5814 108.642 main 24 15 __________P___ -1 19.5814 108.642 4 10 238
1910273N24132 1910 46 WP MM NOT_NAMED 1910-10-04 16:00:00 NR 19.5000 108.500 main 23 23 __________O___ -1 19.5000 108.500 4 9 240
1910273N24132 1910 46 WP MM NOT_NAMED 1910-10-04 18:00:00 NR 19.3467 108.216 main 41 41 __________P___ -1 19.3467 108.216 4 9 241
1910273N24132 1910 46 WP MM NOT_NAMED 1910-10-04 21:00:00 NR 19.1367 107.791 main 86 86 __________P___ -1 19.1367 107.791 4 9 243
1910273N24132 1910 46 WP MM NOT_NAMED 1910-10-05 00:00:00 NR 18.9439 107.366 main 133 92 __________P___ -1 18.9439 107.366 4 9 245
1910273N24132 1910 46 WP MM NOT_NAMED 1910-10-05 03:00:00 NR 18.7604 106.941 main 92 76 __________P___ -1 18.7604 106.941 4 9 246
1910273N24132 1910 46 WP MM NOT_NAMED 1910-10-05 04:00:00 NR 18.7000 106.800 main 76 __________O___ -1 18.7000 106.800 4 9 245

デジタル台風データ・検索

IBTrACS Databaseについて

本データベースは、米国NOAAが公開する1842年以降の世界の熱帯低気圧のベストトラックデータアーカイブInternational Best Track Archive for Climate Stewardship (IBTrACS)を、ウェブで閲覧しやすい形式に変換したものです。

最終更新日:2021-11-26